createdAt,value
2023-02-03T00:02:03.940Z,99012.59
2023-02-03T00:04:30.898Z,99018.06
2023-02-03T00:06:57.901Z,99021.31
2023-02-03T00:09:24.838Z,99020.69
2023-02-03T00:11:51.864Z,99029.41
2023-02-03T00:14:18.761Z,99034.72
2023-02-03T00:16:45.720Z,99043.69
2023-02-03T00:19:12.722Z,99028.19
2023-02-03T00:21:39.674Z,99030.25
2023-02-03T00:24:06.754Z,99036.78
2023-02-03T00:26:33.673Z,99034.97
2023-02-03T00:29:00.896Z,99028.91
2023-02-03T00:31:27.954Z,99025.44
2023-02-03T00:33:56.776Z,99030.28
2023-02-03T00:36:25.521Z,99030.38
2023-02-03T00:38:52.682Z,99038.47
2023-02-03T00:41:21.024Z,99034.59
2023-02-03T00:43:49.164Z,99052.03
2023-02-03T00:46:16.845Z,99033.78
2023-02-03T00:48:43.809Z,99052.38
2023-02-03T00:51:10.946Z,99051.38
2023-02-03T00:53:37.846Z,99052.84
2023-02-03T00:56:05.069Z,99062.88
2023-02-03T00:58:32.039Z,99052.97
2023-02-03T01:00:59.060Z,99059.38
2023-02-03T01:03:26.349Z,99060.56
2023-02-03T01:05:53.313Z,99055.03
2023-02-03T01:08:20.502Z,99042.56
2023-02-03T01:10:47.424Z,99055.25
2023-02-03T01:13:14.325Z,99046.97
2023-02-03T01:15:48.654Z,99051.53
2023-02-03T01:18:15.616Z,99054.56
2023-02-03T01:20:42.597Z,99042.56
2023-02-03T01:23:09.494Z,99041.28
2023-02-03T01:25:36.846Z,99047.31
2023-02-03T01:28:03.765Z,99033.41
2023-02-03T01:30:30.765Z,99028.00
2023-02-03T01:32:57.789Z,99029.44
2023-02-03T01:35:24.739Z,99047.66
2023-02-03T01:37:51.626Z,99028.69
2023-02-03T01:40:19.086Z,99031.97
2023-02-03T01:42:46.084Z,99045.03
2023-02-03T01:45:14.438Z,99034.16
2023-02-03T01:47:50.167Z,99045.63
2023-02-03T01:50:19.627Z,99029.44
2023-02-03T01:52:57.273Z,99026.81
2023-02-03T01:55:31.515Z,99014.22
2023-02-03T01:58:07.802Z,99016.41
2023-02-03T02:00:34.889Z,99020.03
2023-02-03T02:03:04.765Z,99020.88
2023-02-03T02:05:36.588Z,99013.03
2023-02-03T02:08:29.560Z,98995.16
2023-02-03T02:11:13.477Z,98990.34
2023-02-03T02:13:57.064Z,99020.50
2023-02-03T02:17:06.402Z,99007.72
2023-02-03T02:20:22.964Z,99013.88
2023-02-03T02:23:33.838Z,99005.78
2023-02-03T02:26:22.450Z,99017.38
2023-02-03T02:29:05.172Z,99016.41
2023-02-03T02:31:48.259Z,99003.84
2023-02-03T02:34:41.079Z,99015.47
2023-02-03T02:37:17.763Z,99005.06
2023-02-03T02:39:58.729Z,99012.28
2023-02-03T02:42:37.354Z,99006.28
2023-02-03T02:45:29.851Z,99006.50
2023-02-03T02:48:08.849Z,99001.44
2023-02-03T02:50:41.763Z,98979.72
2023-02-03T02:53:10.610Z,98975.59
2023-02-03T02:55:40.710Z,98970.03
2023-02-03T02:58:12.119Z,98967.25
2023-02-03T03:00:41.457Z,98965.13
2023-02-03T03:03:17.532Z,98956.03
2023-02-03T03:05:51.515Z,98964.72
2023-02-03T03:08:25.230Z,98953.50
2023-02-03T03:10:54.174Z,98964.75
2023-02-03T03:13:27.945Z,98973.69
2023-02-03T03:15:58.964Z,98972.84
2023-02-03T03:18:36.447Z,98987.44
2023-02-03T03:21:07.235Z,99000.25
2023-02-03T03:23:39.999Z,99004.69
2023-02-03T03:26:18.399Z,98973.19
2023-02-03T03:28:58.258Z,99004.81
2023-02-03T03:31:25.369Z,99000.97
2023-02-03T03:33:52.454Z,98998.53
2023-02-03T03:36:28.058Z,98999.00
2023-02-03T03:39:13.945Z,98950.03
2023-02-03T03:42:08.838Z,98986.72
2023-02-03T03:45:10.448Z,98977.03
2023-02-03T03:47:48.719Z,98984.41
2023-02-03T03:50:23.000Z,98975.13
2023-02-03T03:52:52.363Z,98959.47
2023-02-03T03:55:20.880Z,98962.97
2023-02-03T03:58:06.645Z,98962.97
2023-02-03T04:00:37.994Z,98946.44
2023-02-03T04:03:28.647Z,98948.94
2023-02-03T04:05:55.569Z,98947.25
2023-02-03T04:08:22.490Z,98932.69
2023-02-03T04:10:49.369Z,98947.41
2023-02-03T04:13:16.550Z,98944.97
2023-02-03T04:15:43.441Z,98948.09
2023-02-03T04:18:13.721Z,98950.91
2023-02-03T04:20:40.735Z,98938.19
2023-02-03T04:23:08.470Z,98949.44
2023-02-03T04:25:35.503Z,98939.66
2023-02-03T04:28:02.564Z,98929.28
2023-02-03T04:30:29.799Z,98932.44
2023-02-03T04:32:56.853Z,98948.94
2023-02-03T04:35:23.999Z,98925.22
2023-02-03T04:37:50.947Z,98925.06
2023-02-03T04:40:18.211Z,98880.91
2023-02-03T04:42:45.259Z,98914.09
2023-02-03T04:45:12.810Z,98919.75
2023-02-03T04:47:41.035Z,98900.84
2023-02-03T04:50:08.667Z,98905.66
2023-02-03T04:52:35.544Z,98894.44
2023-02-03T04:55:04.232Z,98903.97
2023-02-03T04:57:31.356Z,98890.72
2023-02-03T04:59:58.398Z,98878.50
2023-02-03T05:02:25.343Z,98882.75
2023-02-03T05:04:53.231Z,98877.81
2023-02-03T05:07:20.170Z,98878.63
2023-02-03T05:09:47.294Z,98871.78
2023-02-03T05:12:14.205Z,98878.78
2023-02-03T05:14:41.106Z,98881.53
2023-02-03T05:17:07.985Z,98864.75
2023-02-03T05:19:34.926Z,98852.47
2023-02-03T05:22:01.835Z,98837.63
2023-02-03T05:24:28.744Z,98829.19
2023-02-03T05:26:55.701Z,98835.25
2023-02-03T05:29:22.603Z,98793.53
2023-02-03T05:31:49.628Z,98830.06
2023-02-03T05:34:16.554Z,98828.50
2023-02-03T05:36:43.430Z,98819.69
2023-02-03T05:39:10.441Z,98820.53
2023-02-03T05:41:58.296Z,98820.06
2023-02-03T05:44:27.365Z,98812.31
2023-02-03T05:46:56.258Z,98826.06
2023-02-03T05:49:24.209Z,98823.31
2023-02-03T05:51:54.014Z,98817.78
2023-02-03T05:54:21.271Z,98822.47
2023-02-03T05:56:48.188Z,98816.31
2023-02-03T05:59:15.431Z,98817.16
2023-02-03T06:01:42.329Z,98794.75
2023-02-03T06:04:09.644Z,98795.19
2023-02-03T06:06:37.021Z,98795.09
2023-02-03T06:09:06.184Z,98787.88
2023-02-03T06:11:33.626Z,98774.13
2023-02-03T06:14:01.131Z,98788.72
2023-02-03T06:16:29.301Z,98790.38
2023-02-03T06:19:01.110Z,98788.44
2023-02-03T06:21:28.816Z,98779.75
2023-02-03T06:23:56.868Z,98778.22
2023-02-03T06:26:25.241Z,98779.16
2023-02-03T06:28:52.211Z,98780.00
2023-02-03T06:31:19.318Z,98776.63
2023-02-03T06:33:46.356Z,98775.66
2023-02-03T06:36:13.265Z,98769.41
2023-02-03T06:38:40.186Z,98767.50
2023-02-03T06:41:07.088Z,98758.78
2023-02-03T06:43:35.667Z,98756.88
2023-02-03T06:46:02.836Z,98749.41
2023-02-03T06:48:29.945Z,98745.78
2023-02-03T06:50:57.023Z,98752.00
2023-02-03T06:53:24.050Z,98746.34
2023-02-03T06:55:51.056Z,98747.91
2023-02-03T06:58:18.131Z,98747.81
2023-02-03T07:00:44.983Z,98741.28
2023-02-03T07:03:11.966Z,98731.38
2023-02-03T07:05:40.421Z,98729.06
2023-02-03T07:08:07.287Z,98727.00
2023-02-03T07:10:34.239Z,98730.97
2023-02-03T07:13:06.419Z,98715.63
2023-02-03T07:15:34.094Z,98692.59
2023-02-03T07:18:01.320Z,98699.13
2023-02-03T07:20:29.625Z,98699.03
2023-02-03T07:22:58.102Z,98679.78
2023-02-03T07:25:25.850Z,98693.94
2023-02-03T07:27:52.890Z,98674.31
2023-02-03T07:30:20.115Z,98681.84
2023-02-03T07:32:49.417Z,98680.34
2023-02-03T07:35:17.073Z,98673.09
2023-02-03T07:37:44.113Z,98658.97
2023-02-03T07:40:12.723Z,98657.06
2023-02-03T07:42:48.801Z,98671.75
2023-02-03T07:45:17.754Z,98662.28
2023-02-03T07:47:44.979Z,98661.88
2023-02-03T07:50:13.106Z,98658.94
2023-02-03T07:52:40.400Z,98656.75
2023-02-03T07:55:08.133Z,98652.72
2023-02-03T07:57:35.177Z,98643.63
2023-02-03T08:00:02.195Z,98636.84
2023-02-03T08:02:29.579Z,98631.00
2023-02-03T08:04:58.315Z,98629.59
2023-02-03T08:07:25.420Z,98631.16
2023-02-03T08:09:52.346Z,98618.56
2023-02-03T08:12:19.277Z,98620.56
2023-02-03T08:14:46.239Z,98610.22
2023-02-03T08:17:13.191Z,98609.13
2023-02-03T08:19:40.157Z,98596.63
2023-02-03T08:22:07.095Z,98593.97
2023-02-03T08:24:33.999Z,98582.53
2023-02-03T08:27:01.857Z,98591.75
2023-02-03T08:29:28.765Z,98595.28
2023-02-03T08:31:56.433Z,98597.94
2023-02-03T08:34:23.415Z,98591.78
2023-02-03T08:36:50.263Z,98591.22
2023-02-03T08:39:17.192Z,98580.59
2023-02-03T08:41:44.149Z,98579.59
2023-02-03T08:44:11.172Z,98565.75
2023-02-03T08:46:43.727Z,98566.91
2023-02-03T08:49:11.426Z,98558.22
2023-02-03T08:51:38.603Z,98553.56
2023-02-03T08:54:05.779Z,98545.03
2023-02-03T08:56:34.376Z,98555.25
2023-02-03T08:59:01.588Z,98536.31
2023-02-03T09:01:29.113Z,98539.00
2023-02-03T09:03:56.370Z,98549.38
2023-02-03T09:06:26.146Z,98548.94
2023-02-03T09:08:53.339Z,98533.53
2023-02-03T09:11:20.423Z,98526.41
2023-02-03T09:13:48.879Z,98524.28
2023-02-03T09:16:18.178Z,98516.16
2023-02-03T09:18:46.519Z,98521.50
2023-02-03T09:21:23.903Z,98521.63
2023-02-03T09:24:01.982Z,98517.56
2023-02-03T09:26:29.096Z,98499.38
2023-02-03T09:28:56.252Z,98497.69
2023-02-03T09:31:23.471Z,98496.28
2023-02-03T09:33:50.426Z,98490.13
2023-02-03T09:36:17.462Z,98481.59
2023-02-03T09:38:44.470Z,98471.13
2023-02-03T09:41:12.463Z,98456.97
2023-02-03T09:44:05.331Z,98452.34
2023-02-03T09:46:42.463Z,98445.38
2023-02-03T09:49:15.699Z,98430.66
2023-02-03T09:51:55.457Z,98424.91
2023-02-03T09:54:38.977Z,98380.16
2023-02-03T09:57:14.106Z,98413.28
2023-02-03T09:59:41.154Z,98399.44
2023-02-03T10:02:36.103Z,98391.75
2023-02-03T10:05:25.676Z,98379.72
2023-02-03T10:08:19.127Z,98363.06
2023-02-03T10:11:10.613Z,98223.59
2023-02-03T10:13:49.444Z,98350.72
2023-02-03T10:16:42.510Z,98340.81
2023-02-03T10:19:20.314Z,98299.56
2023-02-03T10:21:52.729Z,98314.31
2023-02-03T10:24:25.807Z,98300.72
2023-02-03T10:26:53.800Z,98296.25
2023-02-03T10:29:38.842Z,98287.72
2023-02-03T10:32:14.900Z,98281.00
2023-02-03T10:34:47.550Z,98277.81
2023-02-03T10:37:42.099Z,98267.00
2023-02-03T10:40:13.665Z,98265.19
2023-02-03T10:42:59.736Z,98249.44
2023-02-03T10:45:26.740Z,98231.25
2023-02-03T10:47:56.225Z,98239.66
2023-02-03T10:50:32.102Z,98238.00
2023-02-03T10:53:32.938Z,98227.66
2023-02-03T10:56:10.351Z,98205.81
2023-02-03T10:58:39.551Z,98195.63
2023-02-03T11:01:15.574Z,98205.94
2023-02-03T11:03:45.374Z,98177.53
2023-02-03T11:06:17.636Z,98163.16
2023-02-03T11:08:49.765Z,98167.28
2023-02-03T11:11:23.863Z,98148.91
2023-02-03T11:14:16.143Z,98130.59
2023-02-03T11:16:44.675Z,98135.38
2023-02-03T11:19:19.208Z,98107.72
2023-02-03T11:21:52.622Z,98114.25
2023-02-03T11:24:28.859Z,98094.41
2023-02-03T11:27:05.021Z,98088.13
2023-02-03T11:29:35.003Z,98086.88
2023-02-03T11:32:06.997Z,98076.56
2023-02-03T11:34:38.264Z,98068.88
2023-02-03T11:37:30.112Z,98061.97
2023-02-03T11:40:07.241Z,98035.19
2023-02-03T11:42:35.762Z,98025.81
2023-02-03T11:45:18.088Z,98023.53
2023-02-03T11:47:54.269Z,97998.47
2023-02-03T11:50:44.252Z,97970.56
2023-02-03T11:53:32.720Z,98001.22
2023-02-03T11:56:26.780Z,97996.19
2023-02-03T11:59:12.373Z,97981.47
2023-02-03T12:01:50.798Z,97979.50
2023-02-03T12:04:43.148Z,97971.72
2023-02-03T12:07:31.481Z,97962.44
2023-02-03T12:10:32.122Z,97949.84
2023-02-03T12:13:31.963Z,97934.28
2023-02-03T12:16:14.748Z,97936.94
2023-02-03T12:18:49.813Z,97928.25
2023-02-03T12:21:29.800Z,97905.53
2023-02-03T12:23:59.414Z,97901.19
2023-02-03T12:27:18.732Z,97903.53
2023-02-03T12:29:54.189Z,97900.72
2023-02-03T12:32:32.509Z,97895.09
2023-02-03T12:35:13.959Z,97866.16
2023-02-03T12:37:53.233Z,97865.50
2023-02-03T12:40:49.247Z,97864.69
2023-02-03T12:43:27.058Z,97856.25
2023-02-03T12:46:10.471Z,97844.28
2023-02-03T12:48:56.877Z,97831.69
2023-02-03T12:51:35.721Z,97829.69
2023-02-03T12:54:12.503Z,97813.22
2023-02-03T12:56:44.185Z,97818.91
2023-02-03T12:59:19.697Z,97813.59
2023-02-03T13:02:05.218Z,97798.47
2023-02-03T13:04:43.704Z,97800.28
2023-02-03T13:07:36.566Z,97793.16
2023-02-03T13:10:15.769Z,97781.16
2023-02-03T13:12:46.903Z,97775.50
2023-02-03T13:15:33.057Z,97767.53
2023-02-03T13:18:51.369Z,97768.34
2023-02-03T13:21:18.438Z,97754.84
2023-02-03T13:23:47.715Z,97746.34
2023-02-03T13:26:36.052Z,97747.34
2023-02-03T13:29:27.110Z,97732.22
2023-02-03T13:32:36.863Z,97713.94
2023-02-03T13:35:33.336Z,97695.94
2023-02-03T13:38:22.287Z,97705.75
2023-02-03T13:41:22.780Z,97682.00
2023-02-03T13:43:52.725Z,97681.16
2023-02-03T13:46:32.918Z,97665.00
2023-02-03T13:49:03.433Z,97662.66
2023-02-03T13:51:52.704Z,97647.88
2023-02-03T13:54:43.828Z,97647.41
2023-02-03T13:57:45.962Z,97642.06
2023-02-03T14:00:45.569Z,97635.38
2023-02-03T14:03:35.593Z,97631.44
2023-02-03T14:06:03.380Z,97636.91
2023-02-03T14:08:30.366Z,97630.59
2023-02-03T14:11:34.904Z,97621.78
2023-02-03T14:14:04.747Z,97605.81
2023-02-03T14:16:36.465Z,97597.84
2023-02-03T14:19:04.198Z,97588.88
2023-02-03T14:21:53.523Z,97583.38
2023-02-03T14:24:21.859Z,97577.56
2023-02-03T14:26:52.650Z,97579.25
2023-02-03T14:29:36.905Z,97566.44
2023-02-03T14:32:09.861Z,97566.28
2023-02-03T14:34:49.000Z,97561.78
2023-02-03T14:37:26.672Z,97557.63
2023-02-03T14:40:09.910Z,97555.97
2023-02-03T14:43:11.545Z,97552.63
2023-02-03T14:45:46.279Z,97542.97
2023-02-03T14:48:39.975Z,97550.81
2023-02-03T14:51:16.507Z,97542.84
2023-02-03T14:54:08.701Z,97535.50
2023-02-03T14:57:18.590Z,97531.00
2023-02-03T14:59:51.369Z,97546.66
2023-02-03T15:02:23.392Z,97550.97
2023-02-03T15:04:52.192Z,97530.69
2023-02-03T15:07:54.492Z,97560.31
2023-02-03T15:10:24.820Z,97548.16
2023-02-03T15:12:54.534Z,97550.16
2023-02-03T15:15:30.127Z,97573.28
2023-02-03T15:18:00.154Z,97559.78
2023-02-03T15:20:33.390Z,97567.94
2023-02-03T15:23:01.177Z,97577.91
2023-02-03T15:25:31.244Z,97575.94
2023-02-03T15:28:22.307Z,97573.56
2023-02-03T15:31:03.539Z,97567.41
2023-02-03T15:33:33.277Z,97561.28
2023-02-03T15:36:07.336Z,97559.28
2023-02-03T15:38:45.144Z,97548.16
2023-02-03T15:41:23.355Z,97543.50
2023-02-03T15:44:00.932Z,97549.66
2023-02-03T15:46:37.209Z,97557.81
2023-02-03T15:49:13.362Z,97547.84
2023-02-03T15:52:01.150Z,97546.00
2023-02-03T15:54:42.075Z,97529.22
2023-02-03T15:57:17.213Z,97554.00
2023-02-03T15:59:52.890Z,97549.31
2023-02-03T16:02:21.728Z,97541.31
2023-02-03T16:04:50.537Z,97531.69
2023-02-03T16:07:22.799Z,97551.47
2023-02-03T16:09:53.905Z,97550.47
2023-02-03T16:12:31.962Z,97554.31
2023-02-03T16:15:00.833Z,97568.59
2023-02-03T16:17:41.913Z,97559.94
2023-02-03T16:20:12.006Z,97565.94
2023-02-03T16:22:44.259Z,97565.75
2023-02-03T16:25:18.956Z,97567.41
2023-02-03T16:28:18.957Z,97576.84
2023-02-03T16:31:18.281Z,97580.16
2023-02-03T16:34:05.415Z,97572.47
2023-02-03T16:36:50.960Z,97581.78
2023-02-03T16:39:36.533Z,97572.81
2023-02-03T16:42:32.759Z,97573.75
2023-02-03T16:45:18.069Z,97567.44
2023-02-03T16:48:05.229Z,97573.25
2023-02-03T16:50:53.449Z,97565.25
2023-02-03T16:53:30.593Z,97546.50
2023-02-03T16:56:00.639Z,97575.41
2023-02-03T16:58:28.240Z,97574.88
2023-02-03T17:00:56.957Z,97597.03
2023-02-03T17:03:27.490Z,97599.22
2023-02-03T17:05:56.174Z,97601.72
2023-02-03T17:08:25.552Z,97609.38
2023-02-03T17:10:52.555Z,97600.53
2023-02-03T17:13:21.788Z,97608.38
2023-02-03T17:15:55.138Z,97598.34
2023-02-03T17:18:22.264Z,97609.03
2023-02-03T17:20:49.523Z,97606.22
2023-02-03T17:23:17.401Z,97627.03
2023-02-03T17:25:45.851Z,97618.72
2023-02-03T17:28:16.665Z,97622.34
2023-02-03T17:30:44.156Z,97616.03
2023-02-03T17:33:14.693Z,97621.34
2023-02-03T17:35:43.860Z,97633.66
2023-02-03T17:38:13.013Z,97637.50
2023-02-03T17:54:37.525Z,97650.94
2023-02-03T17:57:04.809Z,97644.47
2023-02-03T17:59:31.874Z,97633.47
2023-02-03T18:01:58.865Z,97636.75
2023-02-03T18:04:26.356Z,97663.59
2023-02-03T18:06:54.710Z,97655.44
2023-02-03T18:09:21.883Z,97657.41
2023-02-03T18:11:48.961Z,97661.59
2023-02-03T18:14:17.000Z,97668.75
2023-02-03T18:16:44.758Z,97674.91
2023-02-03T18:19:14.632Z,97673.38
2023-02-03T18:21:42.774Z,97659.72
2023-02-03T18:24:12.476Z,97652.91
2023-02-03T18:26:50.876Z,97670.72
2023-02-03T18:29:18.634Z,97679.56
2023-02-03T18:31:46.106Z,97674.91
2023-02-03T18:34:13.427Z,97681.59
2023-02-03T18:39:14.550Z,97674.38
2023-02-03T18:41:41.641Z,97687.88
2023-02-03T18:44:08.780Z,97691.22
2023-02-03T18:46:35.826Z,97695.88
2023-02-03T18:49:02.898Z,97685.38
2023-02-03T18:51:30.058Z,97693.88
2023-02-03T18:53:58.583Z,97696.91
2023-02-03T18:56:35.332Z,97685.91
2023-02-03T18:59:08.240Z,97702.41
2023-02-03T19:01:36.024Z,97702.59
2023-02-03T19:04:03.741Z,97698.91
2023-02-03T19:06:32.110Z,97703.63
2023-02-03T19:09:00.323Z,97701.81
2023-02-03T19:11:27.392Z,97709.63
2023-02-03T19:13:54.378Z,97710.81
2023-02-03T19:16:21.869Z,97711.63
2023-02-03T19:18:48.866Z,97712.47
2023-02-03T19:21:16.106Z,97707.66
2023-02-03T19:23:43.231Z,97710.34
2023-02-03T19:26:12.238Z,97714.34
2023-02-03T19:28:40.540Z,97714.53
2023-02-03T19:31:13.357Z,97697.22
2023-02-03T19:33:40.482Z,97703.34
2023-02-03T19:36:08.632Z,97703.22
2023-02-03T19:38:36.372Z,97710.41
2023-02-03T19:41:04.008Z,97720.03
2023-02-03T19:43:31.611Z,97714.72
2023-02-03T19:45:59.581Z,97707.75
2023-02-03T19:48:26.630Z,97713.75
2023-02-03T19:50:53.816Z,97721.06
2023-02-03T19:53:21.794Z,97704.41
2023-02-03T19:55:48.915Z,97717.72
2023-02-03T19:58:16.328Z,97702.22
2023-02-03T20:00:44.086Z,97716.56
2023-02-03T20:03:11.405Z,97718.91
2023-02-03T20:05:38.875Z,97717.06
2023-02-03T20:08:06.505Z,97716.72
2023-02-03T20:10:33.805Z,97719.75
2023-02-03T20:13:01.068Z,97710.91
2023-02-03T20:15:28.256Z,97725.91
2023-02-03T20:17:55.361Z,97714.06
2023-02-03T20:20:23.195Z,97700.56
2023-02-03T20:22:50.263Z,97712.75
2023-02-03T20:25:17.678Z,97696.09
2023-02-03T20:27:44.705Z,97710.22
2023-02-03T20:30:12.446Z,97692.75
2023-02-03T20:32:39.898Z,97692.06
2023-02-03T20:35:07.607Z,97691.75
2023-02-03T20:37:36.332Z,97687.09
2023-02-03T20:40:12.977Z,97682.09
2023-02-03T20:42:40.311Z,97685.25
2023-02-03T20:45:15.746Z,97670.09
2023-02-03T20:47:43.179Z,97690.06
2023-02-03T20:50:16.938Z,97684.09
2023-02-03T20:52:45.260Z,97698.09
2023-02-03T20:55:14.710Z,97709.38
2023-02-03T20:57:42.146Z,97715.06
2023-02-03T21:00:20.906Z,97696.25
2023-02-03T21:03:06.794Z,97693.72
2023-02-03T21:05:39.800Z,97696.06
2023-02-03T21:08:12.375Z,97689.56
2023-02-03T21:10:41.116Z,97697.72
2023-02-03T21:13:28.081Z,97695.38
2023-02-03T21:16:02.915Z,97699.22
2023-02-03T21:18:44.589Z,97696.38
2023-02-03T21:21:17.104Z,97697.69
2023-02-03T21:23:47.911Z,97695.22
2023-02-03T21:26:22.436Z,97698.06
2023-02-03T21:28:51.896Z,97655.63
2023-02-03T21:31:23.470Z,97703.03
2023-02-03T21:33:51.528Z,97689.06
2023-02-03T21:36:22.265Z,97691.53
2023-02-03T21:38:55.371Z,97680.38
2023-02-03T21:41:24.673Z,97687.72
2023-02-03T21:43:55.994Z,97685.88
2023-02-03T21:46:28.781Z,97700.06
2023-02-03T21:49:00.149Z,97690.53
2023-02-03T21:51:38.405Z,97688.88
2023-02-03T21:54:24.123Z,97702.69
2023-02-03T21:56:51.209Z,97700.50
2023-02-03T21:59:28.727Z,97696.00
2023-02-03T22:01:57.852Z,97699.19
2023-02-03T22:04:28.883Z,97699.53
2023-02-03T22:06:56.741Z,97703.50
2023-02-03T22:09:26.073Z,97693.34
2023-02-03T22:11:53.453Z,97694.66
2023-02-03T22:14:23.352Z,97695.66
2023-02-03T22:16:50.613Z,97687.03
2023-02-03T22:19:17.819Z,97678.19
2023-02-03T22:21:45.393Z,97688.31
2023-02-03T22:24:12.598Z,97683.97
2023-02-03T22:26:39.527Z,97692.16
2023-02-03T22:29:06.601Z,97701.31
2023-02-03T22:31:33.896Z,97700.31
2023-02-03T22:34:00.982Z,97687.03
2023-02-03T22:36:27.954Z,97695.31
2023-02-03T22:38:54.951Z,97696.47
2023-02-03T22:41:21.928Z,97680.31
2023-02-03T22:43:48.859Z,97674.31
2023-02-03T22:46:16.044Z,97680.28
2023-02-03T22:48:43.070Z,97681.94
2023-02-03T22:51:10.139Z,97672.91
2023-02-03T22:53:39.219Z,97690.91
2023-02-03T22:56:06.351Z,97671.25
2023-02-03T22:58:33.334Z,97669.75
2023-02-03T23:01:00.458Z,97683.59
2023-02-03T23:03:27.459Z,97678.25
2023-02-03T23:05:54.493Z,97673.59
2023-02-03T23:08:21.617Z,97683.22
2023-02-03T23:10:48.623Z,97686.56
2023-02-03T23:13:15.611Z,97682.91
2023-02-03T23:15:42.681Z,97663.19
2023-02-03T23:18:10.916Z,97659.06
2023-02-03T23:20:37.939Z,97663.19
2023-02-03T23:23:04.904Z,97665.91
2023-02-03T23:25:31.919Z,97657.75
2023-02-03T23:27:58.946Z,97656.53
2023-02-03T23:30:25.888Z,97656.91
2023-02-03T23:32:52.843Z,97655.38
2023-02-03T23:35:38.158Z,97648.91
2023-02-03T23:38:05.120Z,97638.22
2023-02-03T23:40:32.302Z,97639.38
2023-02-03T23:42:59.489Z,97650.06
2023-02-03T23:45:26.442Z,97645.56
2023-02-03T23:47:53.543Z,97643.53
2023-02-03T23:50:20.662Z,97647.84
2023-02-03T23:52:48.085Z,97625.25
2023-02-03T23:55:18.131Z,97642.03
2023-02-03T23:57:45.802Z,97636.34
